Portada
METAR-TAF:

METAR-TAF

Aeropuertos :

La Gomera, España

Aeropuerto de La Gomera

latitud: 28-01-47N, longitud: 017-12-53W, altitud: 218 m

Observación

El informe se hizo hace 13 minutos, a las 15:30 UTC
Viento 13 kt del suroeste, variando entre sur-suroeste y oeste
Temperatura 22°C
Humedad 65%
Presión 1017 hPa
Visibilidad 10 km o más
Escasas nubes a una altura de 2000 ft

METAR: GCGM 201530Z 23013KT 200V280 9999 FEW020 22/15 Q1017 RMK R09/25009KT 190V320 ARP/24011KT 190V300

Hora: 15:43 (15:43 UTC)

Pronóstico

El informe se hizo hace 1 hora y 43 minutos, a las 14:00 UTC
Pronóstico válido del 20 a las 15 UTC al 21 a las 15 UTC
Viento 8 kt del suroeste
Visibilidad 10 km o más
Escasas nubes a una altura de 2000 ft
Probabilidad 30% :
Temporalmente
del 21 a las 06 UTC al 21 a las 15 UTC
Visibilidad: 4000 m
lluvia

TAF: GCGM 201400Z 2015/2115 23008KT 9999 FEW020 TX24/2113Z TN17/2106Z PROB30 TEMPO 2106/2115 4000 RA

Observaciones y pronósticos meteorológicos de más de 4000 aeropuertos (mensajes METAR y TAF).

Los puntos amarillos y rojos representan las estaciones disponibles.

Ponga el ratón en el punto deseado para ver el nombre de la estación.

Haga clic para ver las observaciones y los pronósticos meteorológicos.

Para cambiar el mapa : haga clic en los botones verdes con una cruz de color negro para hacer un zoom, en el botón verde con un guión para alejar o en las flechas verdes para mapas adyacentes.


METAR-TAF: